Time;durP1;ratioP1;P1;durP2;ratioP2;P2;SDS_P1;SDS_P2;PMS_P1;PMS_P2;Temp;Humidity;BMP_temperature;BMP_pressure;BME280_temperature;BME280_humidity;BME280_pressure;Samples;Min_cycle;Max_cycle;Signal;HPM_P1;HPM_P2
2023/07/15 00:01:28;;;;;;;;;0.00;0.00;;;;;27.20;43.76;99790.78;4851674;29;45442;-86
2023/07/15 00:03:54;;;;;;;;;0.00;0.00;;;;;27.06;44.11;99787.16;4836689;29;45400;-86
2023/07/15 00:06:21;;;;;;;;;2.33;1.00;;;;;26.99;44.55;99782.25;4851534;29;44901;-86
2023/07/15 00:08:47;;;;;;;;;0.33;0.33;;;;;26.96;44.94;99785.19;4835697;29;46963;-86
2023/07/15 00:11:31;;;;;;;;;1.00;1.00;;;;;27.01;44.76;99791.22;4837140;29;45372;-86
2023/07/15 00:13:57;;;;;;;;;0.00;0.00;;;;;26.88;44.82;99778.41;4835565;29;45901;-86
2023/07/15 00:16:24;;;;;;;;;1.00;1.00;;;;;26.88;44.93;99778.41;4852756;29;45415;-86
2023/07/15 00:18:49;;;;;;;;;2.00;2.00;;;;;26.84;45.27;99774.13;4854330;29;46256;-86
2023/07/15 00:21:22;;;;;;;;;2.00;2.00;;;;;26.88;45.09;99770.22;4837138;29;45264;-87
2023/07/15 00:23:53;;;;;;;;;0.33;0.33;;;;;26.72;45.50;99764.97;4836774;29;45515;-87
2023/07/15 00:26:22;;;;;;;;;1.33;0.33;;;;;26.71;45.71;99771.38;4836812;29;44808;-87
2023/07/15 00:28:49;;;;;;;;;1.00;1.00;;;;;26.74;45.71;99778.47;4853273;29;46238;-86
2023/07/15 00:31:17;;;;;;;;;1.67;1.00;;;;;26.75;46.35;99791.16;4837057;29;45398;-86
2023/07/15 00:33:44;;;;;;;;;1.00;1.00;;;;;26.64;46.48;99774.63;4853017;29;45275;-86
2023/07/15 00:36:12;;;;;;;;;2.00;2.00;;;;;26.65;46.19;99796.34;4867773;29;45634;-86
2023/07/15 00:38:38;;;;;;;;;0.67;0.67;;;;;26.58;47.46;99791.41;4851269;29;47423;-86
2023/07/15 00:41:19;;;;;;;;;1.00;1.00;;;;;26.49;47.11;99774.66;4852089;29;45831;-86
2023/07/15 00:43:51;;;;;;;;;2.00;2.00;;;;;26.61;46.97;99799.41;4867484;29;45371;-86
2023/07/15 00:46:23;;;;;;;;;1.33;1.33;;;;;26.58;47.27;99789.56;4852169;29;45432;-86
2023/07/15 00:49:25;;;;;;;;;0.75;0.75;;;;;26.57;47.97;99803.28;4851929;29;46931;-86
2023/07/15 00:52:02;;;;;;;;;0.33;0.33;;;;;26.46;48.75;99790.34;4852060;29;45580;-87
2023/07/15 00:54:32;;;;;;;;;0.33;0.33;;;;;26.38;49.15;99799.06;4853116;29;45807;-87
2023/07/15 00:57:00;;;;;;;;;2.67;1.33;;;;;26.34;48.98;99795.66;4852546;29;45339;-87
2023/07/15 00:59:26;;;;;;;;;1.00;1.00;;;;;26.27;48.28;99801.63;4852394;29;45455;-87
2023/07/15 01:01:53;;;;;;;;;1.33;0.33;;;;;26.23;48.47;99786.44;4867568;28;45434;-87
2023/07/15 01:04:19;;;;;;;;;1.33;1.33;;;;;26.24;48.75;99790.91;4868008;28;45380;-87
2023/07/15 01:06:45;;;;;;;;;3.33;3.33;;;;;26.24;49.31;99791.81;4850962;29;45468;-87
2023/07/15 01:09:11;;;;;;;;;1.33;1.33;;;;;26.21;49.13;99791.13;4852666;29;45472;-86
2023/07/15 01:11:37;;;;;;;;;2.00;2.00;;;;;26.16;49.24;99791.44;4867523;28;45314;-87
2023/07/15 01:14:06;;;;;;;;;2.33;1.33;;;;;26.14;50.02;99786.09;4869460;29;45429;-87
2023/07/15 01:16:35;;;;;;;;;0.67;0.67;;;;;26.23;49.43;99794.63;4854835;29;45539;-87
2023/07/15 01:19:04;;;;;;;;;1.33;1.33;;;;;26.09;49.58;99787.34;4868208;29;47716;-87
2023/07/15 01:21:33;;;;;;;;;1.00;1.00;;;;;26.23;49.78;99802.81;4853355;29;45325;-86
2023/07/15 01:23:59;;;;;;;;;1.50;1.50;;;;;26.09;50.00;99801.84;4853322;29;45363;-87
2023/07/15 01:26:27;;;;;;;;;1.00;1.00;;;;;26.16;49.96;99799.63;4854492;29;45852;-86
2023/07/15 01:28:52;;;;;;;;;0.33;0.33;;;;;26.06;50.63;99806.66;4854655;29;45279;-87
2023/07/15 01:31:19;;;;;;;;;0.33;0.33;;;;;26.05;51.06;99811.19;4852483;29;45338;-86
2023/07/15 01:33:54;;;;;;;;;0.67;0.67;;;;;26.07;52.05;99803.81;4871490;28;45836;-87
2023/07/15 01:36:20;;;;;;;;;2.00;0.67;;;;;25.93;52.39;99793.81;4854592;29;45503;-87
2023/07/15 01:38:45;;;;;;;;;0.33;0.33;;;;;25.88;52.80;99801.38;4854503;29;46528;-87
2023/07/15 01:41:10;;;;;;;;;0.33;0.33;;;;;25.84;53.43;99788.94;4871662;29;45587;-87
2023/07/15 01:43:36;;;;;;;;;0.67;0.67;;;;;25.86;52.78;99791.56;4872263;29;45444;-86
2023/07/15 01:46:01;;;;;;;;;0.33;0.33;;;;;25.84;52.46;99785.34;4857428;29;45488;-87
2023/07/15 01:48:27;;;;;;;;;0.00;0.00;;;;;25.86;52.77;99781.53;4874968;29;45388;-86
2023/07/15 01:50:52;;;;;;;;;2.00;2.00;;;;;25.73;53.60;99759.69;4859086;29;45891;-86
2023/07/15 01:53:18;;;;;;;;;0.33;0.33;;;;;25.78;54.10;99777.56;4858847;29;45359;-87
2023/07/15 01:55:47;;;;;;;;;1.00;1.00;;;;;25.75;54.55;99774.06;4859377;29;44918;-87
2023/07/15 01:58:12;;;;;;;;;0.67;0.67;;;;;25.67;54.17;99748.28;4875717;28;45415;-87
2023/07/15 02:00:40;;;;;;;;;2.67;1.00;;;;;25.70;55.12;99748.09;4875517;28;45660;-86
2023/07/15 02:03:47;;;;;;;;;0.00;0.00;;;;;25.80;54.53;99759.28;4859080;29;44910;-87
2023/07/15 02:06:13;;;;;;;;;0.00;0.00;;;;;25.75;55.26;99746.81;4874721;29;45370;-87
2023/07/15 02:08:39;;;;;;;;;2.00;2.00;;;;;25.54;54.98;99740.03;4874391;29;48015;-86
2023/07/15 02:11:04;;;;;;;;;0.00;0.00;;;;;25.64;55.60;99748.50;4859004;29;46020;-86
2023/07/15 02:13:29;;;;;;;;;2.33;0.33;;;;;25.60;56.26;99755.09;4874651;28;44893;-87
2023/07/15 02:15:58;;;;;;;;;0.33;0.33;;;;;25.43;56.15;99732.56;4874919;29;44764;-87
2023/07/15 02:18:25;;;;;;;;;2.00;1.00;;;;;25.54;56.34;99750.94;4874566;29;47980;-86
2023/07/15 02:20:53;;;;;;;;;1.00;1.00;;;;;25.60;56.61;99750.53;4873949;29;45360;-87
2023/07/15 02:23:19;;;;;;;;;2.00;2.00;;;;;25.51;57.57;99762.00;4857570;29;45740;-86
2023/07/15 02:25:44;;;;;;;;;3.00;3.00;;;;;25.45;58.27;99754.22;4875550;29;45351;-86
2023/07/15 02:28:10;;;;;;;;;2.00;2.00;;;;;25.46;57.57;99755.97;4857492;28;46813;-86
2023/07/15 02:30:36;;;;;;;;;1.00;1.00;;;;;25.52;58.46;99766.47;4875152;28;45170;-87
2023/07/15 02:33:05;;;;;;;;;0.00;0.00;;;;;25.41;59.23;99759.00;4873221;29;45643;-87
2023/07/15 02:35:31;;;;;;;;;0.67;0.67;;;;;25.29;60.21;99736.16;4873720;29;45261;-87
2023/07/15 02:37:56;;;;;;;;;1.00;1.00;;;;;25.42;58.56;99754.44;4856341;29;47260;-87
2023/07/15 02:40:22;;;;;;;;;1.00;1.00;;;;;25.33;59.59;99745.88;4857180;29;45324;-86
2023/07/15 02:42:47;;;;;;;;;0.00;0.00;;;;;25.33;59.42;99761.34;4857967;29;44862;-86
2023/07/15 02:45:15;;;;;;;;;2.00;2.00;;;;;25.42;59.51;99776.22;4872991;29;45499;-86
2023/07/15 02:47:40;;;;;;;;;0.00;0.00;;;;;25.30;60.43;99770.56;4874199;28;45356;-86
2023/07/15 02:50:08;;;;;;;;;1.00;1.00;;;;;25.35;60.74;99776.59;4875178;29;45293;-87
2023/07/15 02:52:35;;;;;;;;;1.00;1.00;;;;;25.33;60.36;99786.69;4857912;29;45372;-85
2023/07/15 02:55:07;;;;;;;;;1.00;1.00;;;;;25.30;61.05;99778.72;4857779;29;45508;-87
2023/07/15 02:57:33;;;;;;;;;2.33;1.33;;;;;25.34;61.60;99774.81;4857469;29;46826;-87
2023/07/15 03:00:00;;;;;;;;;0.67;0.67;;;;;25.34;61.59;99763.06;4857289;29;45293;-87
2023/07/15 03:02:29;;;;;;;;;1.00;1.00;;;;;25.35;63.15;99768.44;4857235;29;45435;-87
2023/07/15 03:04:54;;;;;;;;;1.00;1.00;;;;;25.26;62.35;99760.81;4857961;29;45360;-87
2023/07/15 03:07:20;;;;;;;;;1.00;1.00;;;;;25.24;62.62;99762.78;4858887;29;47012;-87
2023/07/15 03:09:46;;;;;;;;;1.00;1.00;;;;;25.23;62.83;99755.59;4857357;29;45365;-87
2023/07/15 03:12:12;;;;;;;;;1.00;1.00;;;;;25.06;61.79;99753.00;4857048;29;45505;-86
2023/07/15 03:14:38;;;;;;;;;0.67;0.67;;;;;25.21;63.33;99767.50;4856691;29;45510;-87
2023/07/15 03:17:03;;;;;;;;;2.00;1.00;;;;;25.14;63.46;99777.88;4857672;28;46906;-87
2023/07/15 03:19:32;;;;;;;;;1.67;1.67;;;;;25.07;64.64;99765.66;4873202;28;44928;-87
2023/07/15 03:21:59;;;;;;;;;1.33;1.33;;;;;25.02;63.93;99756.88;4872768;29;45502;-87
2023/07/15 03:24:25;;;;;;;;;0.67;0.67;;;;;25.05;63.95;99773.03;4870038;29;45421;-87
2023/07/15 03:26:52;;;;;;;;;1.00;1.00;;;;;25.07;63.95;99771.09;4870749;29;45096;-87
2023/07/15 03:29:18;;;;;;;;;0.67;0.67;;;;;24.82;65.00;99734.50;4871747;29;45638;-87
2023/07/15 03:31:43;;;;;;;;;2.33;2.33;;;;;24.94;64.15;99763.69;4857029;29;45349;-87
2023/07/15 03:34:19;;;;;;;;;3.00;1.33;;;;;24.98;64.29;99771.66;4855053;29;45397;-87
2023/07/15 03:36:45;;;;;;;;;1.67;1.67;;;;;24.98;64.69;99785.25;4871627;29;46194;-88
2023/07/15 03:39:10;;;;;;;;;0.67;0.67;;;;;24.82;65.97;99761.69;4872329;29;45491;-87
2023/07/15 03:41:36;;;;;;;;;1.67;1.67;;;;;24.81;65.76;99775.41;4856337;29;45322;-87
2023/07/15 03:44:03;;;;;;;;;2.00;2.00;;;;;24.91;65.79;99796.50;4857626;29;45497;-87
2023/07/15 03:46:30;;;;;;;;;1.50;1.00;;;;;24.88;65.76;99782.19;4873791;29;46196;-87
2023/07/15 03:48:55;;;;;;;;;1.00;1.00;;;;;24.87;66.05;99785.91;4872912;29;44735;-86
2023/07/15 03:51:20;;;;;;;;;1.00;1.00;;;;;24.81;66.28;99779.00;4856703;29;45493;-85
2023/07/15 03:53:46;;;;;;;;;2.00;2.00;;;;;24.88;67.81;99799.38;4858745;29;45631;-86
2023/07/15 03:56:11;;;;;;;;;2.00;2.00;;;;;24.82;67.42;99782.56;4875583;29;47006;-86
2023/07/15 03:58:37;;;;;;;;;0.67;0.67;;;;;24.68;67.54;99748.06;4855219;29;45878;-87
2023/07/15 04:01:03;;;;;;;;;3.00;2.67;;;;;24.77;66.47;99769.25;4873404;29;45298;-87
2023/07/15 04:03:28;;;;;;;;;0.67;0.67;;;;;24.73;66.86;99751.38;4872744;29;45469;-86
2023/07/15 04:05:54;;;;;;;;;1.00;1.00;;;;;24.75;66.88;99760.31;4855848;29;47159;-86
2023/07/15 04:08:21;;;;;;;;;0.67;0.67;;;;;24.67;67.36;99728.16;4873214;29;45428;-86
2023/07/15 04:10:49;;;;;;;;;2.00;2.00;;;;;24.83;67.25;99768.03;4855771;29;45351;-86
2023/07/15 04:13:14;;;;;;;;;0.33;0.33;;;;;24.85;67.05;99783.28;4872105;29;45617;-86
2023/07/15 04:16:17;;;;;;;;;2.00;2.00;;;;;24.98;67.38;99807.00;4870939;29;45324;-86
2023/07/15 04:18:43;;;;;;;;;2.33;2.33;;;;;24.86;66.71;99827.66;4872679;29;45313;-86
2023/07/15 04:21:12;;;;;;;;;1.33;1.33;;;;;24.92;67.24;99825.44;4855498;29;45341;-86
2023/07/15 04:23:37;;;;;;;;;2.00;2.00;;;;;24.82;69.10;99799.75;4869964;29;45401;-86
2023/07/15 04:26:03;;;;;;;;;0.67;0.67;;;;;24.75;69.03;99792.94;4854038;29;47450;-86
2023/07/15 04:28:28;;;;;;;;;1.75;1.75;;;;;24.71;69.83;99789.53;4838661;29;45462;-86
2023/07/15 04:31:01;;;;;;;;;1.00;1.00;;;;;24.78;68.10;99765.56;4870160;29;45885;-87
2023/07/15 04:33:33;;;;;;;;;0.50;0.50;;;;;24.87;67.31;99780.47;4854124;29;45764;-87
2023/07/15 04:35:58;;;;;;;;;2.25;1.00;;;;;24.82;67.25;99772.56;4855007;29;45423;-87
2023/07/15 04:38:24;;;;;;;;;1.25;1.00;;;;;24.74;67.89;99745.88;4872231;29;45366;-87
2023/07/15 04:40:49;;;;;;;;;0.67;0.67;;;;;24.81;67.23;99751.78;4871097;29;45407;-86
2023/07/15 04:43:15;;;;;;;;;2.00;1.00;;;;;24.80;67.18;99731.00;4871650;29;45480;-86
2023/07/15 04:45:41;;;;;;;;;0.33;0.00;;;;;24.78;67.35;99727.50;4871213;29;45411;-86
2023/07/15 04:48:07;;;;;;;;;1.25;0.50;;;;;24.87;67.28;99745.97;4873751;29;45361;-87
2023/07/15 04:50:33;;;;;;;;;1.25;1.25;;;;;24.89;67.40;99749.47;4874219;29;45424;-88
2023/07/15 04:52:58;;;;;;;;;0.50;0.50;;;;;24.80;67.39;99747.31;4857116;29;45568;-87
2023/07/15 04:55:24;;;;;;;;;1.25;1.25;;;;;24.77;68.32;99763.81;4857623;29;46862;-87
2023/07/15 04:57:49;;;;;;;;;1.00;1.00;;;;;24.81;68.76;99779.00;4857257;29;45723;-87
2023/07/15 05:00:16;;;;;;;;;0.75;0.75;;;;;24.82;68.13;99764.41;4856879;29;45500;-88
2023/07/15 05:02:41;;;;;;;;;0.50;0.50;;;;;24.80;68.01;99757.31;4872905;29;45404;-87
2023/07/15 05:05:10;;;;;;;;;2.00;1.50;;;;;24.91;67.51;99747.53;4857241;29;47015;-87
2023/07/15 05:07:36;;;;;;;;;1.00;1.00;;;;;24.91;67.54;99760.28;4874310;29;45213;-87
2023/07/15 05:10:01;;;;;;;;;1.00;1.00;;;;;24.82;67.54;99750.81;4857190;29;44734;-87
2023/07/15 05:12:26;;;;;;;;;0.67;0.67;;;;;24.92;66.90;99757.44;4856966;29;45298;-86
2023/07/15 05:14:52;;;;;;;;;0.33;0.33;;;;;25.00;67.24;99770.56;4855239;29;47152;-87
2023/07/15 05:17:17;;;;;;;;;0.00;0.00;;;;;25.00;66.23;99775.16;4858011;29;45467;-85
2023/07/15 05:19:43;;;;;;;;;0.67;0.67;;;;;24.97;66.35;99764.47;4856947;29;45385;-86
2023/07/15 05:22:08;;;;;;;;;1.67;0.67;;;;;25.02;65.70;99770.50;4857470;29;45631;-86
2023/07/15 05:24:34;;;;;;;;;1.33;1.33;;;;;24.99;65.74;99765.25;4873499;29;45323;-87
2023/07/15 05:27:00;;;;;;;;;1.33;1.33;;;;;25.02;65.92;99778.66;4857840;29;45548;-86
2023/07/15 05:29:25;;;;;;;;;1.50;1.00;;;;;24.99;65.98;99767.97;4872803;29;45402;-86
2023/07/15 05:31:51;;;;;;;;;1.67;1.67;;;;;25.03;66.04;99770.41;4873124;29;44904;-87
2023/07/15 05:34:16;;;;;;;;;2.00;1.00;;;;;25.07;66.00;99790.13;4873202;29;45486;-86
2023/07/15 05:36:42;;;;;;;;;1.00;1.00;;;;;25.09;65.84;99770.03;4874010;29;45355;-86
2023/07/15 05:39:07;;;;;;;;;2.00;2.00;;;;;25.10;65.92;99782.63;4872627;29;44934;-86
2023/07/15 05:41:33;;;;;;;;;1.67;1.67;;;;;25.14;65.96;99799.66;4858145;29;45446;-86
2023/07/15 05:43:58;;;;;;;;;2.67;1.67;;;;;25.18;64.91;99805.78;4873437;29;47547;-86
2023/07/15 05:46:23;;;;;;;;;2.00;2.00;;;;;25.16;63.92;99812.19;4874116;29;45841;-87
2023/07/15 05:48:49;;;;;;;;;1.00;1.00;;;;;25.12;62.70;99809.75;4873988;28;45464;-86
2023/07/15 05:51:14;;;;;;;;;1.75;1.75;;;;;25.10;62.49;99808.97;4874628;29;44776;-86
2023/07/15 05:53:42;;;;;;;;;3.67;2.67;;;;;25.12;62.41;99823.34;4873014;29;46585;-86
2023/07/15 05:56:10;;;;;;;;;2.67;1.67;;;;;25.19;61.81;99822.03;4871820;29;45373;-87
2023/07/15 05:58:36;;;;;;;;;3.00;1.75;;;;;25.12;62.20;99823.34;4873139;28;45383;-87
2023/07/15 06:01:01;;;;;;;;;1.75;1.75;;;;;25.08;61.75;99828.09;4873725;29;45493;-87
2023/07/15 06:03:27;;;;;;;;;3.00;1.00;;;;;25.01;61.61;99836.75;4874100;29;48365;-85
2023/07/15 06:05:52;;;;;;;;;2.67;2.67;;;;;24.88;61.34;99818.44;4858286;29;45466;-87
2023/07/15 06:08:18;;;;;;;;;1.33;1.33;;;;;24.88;61.61;99826.59;4858216;29;45464;-87
2023/07/15 06:10:45;;;;;;;;;2.00;2.00;;;;;24.90;60.51;99840.09;4876076;29;45418;-87
2023/07/15 06:13:11;;;;;;;;;0.67;0.67;;;;;24.94;60.67;99838.94;4875735;29;45205;-87
2023/07/15 06:15:38;;;;;;;;;2.00;2.00;;;;;24.94;60.11;99834.41;4873193;29;45356;-87
2023/07/15 06:18:07;;;;;;;;;3.00;3.00;;;;;25.04;60.08;99853.75;4857802;29;45289;-87
2023/07/15 06:20:37;;;;;;;;;1.67;1.67;;;;;25.01;59.78;99858.53;4873969;29;45628;-87
2023/07/15 06:23:09;;;;;;;;;4.00;2.00;;;;;24.93;59.64;99840.81;4857605;29;47722;-85
2023/07/15 06:25:37;;;;;;;;;4.00;3.33;;;;;24.93;59.48;99848.97;4875864;28;45292;-86
2023/07/15 06:28:06;;;;;;;;;2.00;2.00;;;;;24.82;59.33;99826.09;4841973;29;45380;-86
2023/07/15 06:30:32;;;;;;;;;3.00;3.00;;;;;24.95;59.32;99860.63;4873103;29;45807;-85
2023/07/15 06:36:46;;;;;;;;;2.67;2.67;;;;;25.08;59.24;99865.31;4874169;29;45465;-86
2023/07/15 06:39:12;;;;;;;;;3.33;3.33;;;;;24.99;59.32;99871.34;4873805;29;45447;-86
2023/07/15 06:41:38;;;;;;;;;2.00;2.00;;;;;24.97;58.83;99873.28;4875105;29;45178;-85
2023/07/15 06:44:05;;;;;;;;;2.00;1.00;;;;;24.95;58.57;99870.63;4872249;29;46792;-87
2023/07/15 06:46:30;;;;;;;;;4.00;4.00;;;;;25.07;58.76;99872.63;4874020;29;45400;-87
2023/07/15 06:48:55;;;;;;;;;2.00;2.00;;;;;25.09;57.79;99869.81;4888157;29;45274;-87
2023/07/15 06:51:24;;;;;;;;;2.00;1.00;;;;;25.08;58.11;99859.88;4887242;29;45423;-87
2023/07/15 06:53:50;;;;;;;;;1.33;1.33;;;;;25.09;57.79;99869.81;4871979;29;46926;-86
2023/07/15 06:56:16;;;;;;;;;3.00;2.67;;;;;25.06;58.39;99903.50;4873046;29;45300;-87
2023/07/15 06:58:41;;;;;;;;;2.00;1.00;;;;;24.94;57.86;99858.88;4872117;29;45364;-87
2023/07/15 07:01:07;;;;;;;;;1.67;1.67;;;;;25.01;58.65;99889.31;4873519;29;45380;-87
2023/07/15 07:03:32;;;;;;;;;1.75;1.00;;;;;24.87;58.43;99865.66;4888094;29;47236;-86
2023/07/15 07:06:01;;;;;;;;;2.00;2.00;;;;;24.97;59.37;99879.59;4888400;29;45904;-87
2023/07/15 07:08:30;;;;;;;;;1.00;1.00;;;;;25.14;60.27;99893.03;4872222;29;45307;-87
2023/07/15 07:10:55;;;;;;;;;1.75;1.00;;;;;25.00;60.54;99879.38;4886512;29;45260;-86
2023/07/15 07:13:21;;;;;;;;;3.00;1.50;;;;;24.94;61.36;99872.50;4871725;29;45380;-87
2023/07/15 07:15:47;;;;;;;;;2.00;2.00;;;;;25.07;61.34;99885.34;4873153;29;45426;-86
2023/07/15 07:18:13;;;;;;;;;4.33;3.00;;;;;24.97;62.00;99862.41;4889875;28;45370;-86
2023/07/15 07:20:39;;;;;;;;;2.00;2.00;;;;;25.24;61.70;99877.06;4873151;29;45353;-86
2023/07/15 07:23:04;;;;;;;;;3.67;3.67;;;;;25.35;60.80;99890.91;4887970;29;47676;-86
2023/07/15 07:25:30;;;;;;;;;2.00;2.00;;;;;25.40;60.90;99889.75;4887876;29;44753;-87
2023/07/15 07:27:58;;;;;;;;;2.25;2.25;;;;;25.44;60.39;99888.59;4872143;29;45539;-88
2023/07/15 07:30:24;;;;;;;;;2.50;2.00;;;;;25.39;60.90;99897.06;4875753;29;45587;-87
2023/07/15 07:32:49;;;;;;;;;1.75;1.75;;;;;25.37;61.03;99900.81;4874962;29;45292;-87
2023/07/15 07:35:15;;;;;;;;;1.25;1.25;;;;;25.34;60.73;99904.59;4880471;29;45758;-87
2023/07/15 07:38:17;;;;;;;;;1.25;1.25;;;;;25.48;60.68;99920.97;4858450;29;45386;-87
2023/07/15 07:40:47;;;;;;;;;3.00;3.00;;;;;25.32;60.48;99917.44;4856703;29;45464;-87
2023/07/15 07:43:13;;;;;;;;;2.33;2.33;;;;;25.27;60.68;99917.72;4871662;29;47078;-86
2023/07/15 07:45:38;;;;;;;;;1.67;1.67;;;;;25.13;60.17;99904.03;4858441;29;45451;-86
2023/07/15 07:48:05;;;;;;;;;4.67;3.00;;;;;25.31;60.33;99915.69;4857546;29;45329;-86
2023/07/15 07:50:32;;;;;;;;;1.67;1.67;;;;;25.38;60.57;99894.41;4873623;29;45294;-85
2023/07/15 07:52:59;;;;;;;;;1.67;1.67;;;;;25.50;59.87;99905.41;4856077;29;48264;-86
2023/07/15 07:55:25;;;;;;;;;4.67;4.00;;;;;25.66;59.17;99910.81;4871194;29;45981;-86
2023/07/15 07:57:51;;;;;;;;;2.00;2.00;;;;;25.83;58.39;99906.16;4872858;29;45720;-86
2023/07/15 08:00:19;;;;;;;;;3.50;2.25;;;;;26.14;58.30;99900.53;4871833;29;45407;-87
2023/07/15 08:02:44;;;;;;;;;2.00;2.00;;;;;26.09;57.51;99897.22;4872412;29;47230;-86
2023/07/15 08:05:10;;;;;;;;;0.67;0.67;;;;;26.19;57.00;99919.31;4873184;29;44897;-86
2023/07/15 08:07:35;;;;;;;;;1.00;0.67;;;;;26.19;56.66;99919.31;4874243;29;44740;-86
2023/07/15 08:10:05;;;;;;;;;1.00;1.00;;;;;26.30;56.58;99918.66;4857129;29;45462;-86
2023/07/15 08:12:30;;;;;;;;;2.00;1.00;;;;;26.17;56.59;99914.94;4857208;29;46837;-85
2023/07/15 08:14:56;;;;;;;;;0.75;0.00;;;;;26.18;56.51;99911.22;4874025;29;45251;-86
2023/07/15 08:17:21;;;;;;;;;2.67;1.67;;;;;26.14;55.59;99922.34;4873512;29;45412;-87
2023/07/15 08:19:46;;;;;;;;;3.00;2.00;;;;;26.06;55.51;99919.25;4872461;29;45469;-86
2023/07/15 08:22:12;;;;;;;;;2.33;1.33;;;;;26.17;55.15;99920.41;4859604;29;46737;-86
2023/07/15 08:24:37;;;;;;;;;1.00;1.00;;;;;26.17;55.55;99912.22;4875032;29;45276;-86
2023/07/15 08:27:03;;;;;;;;;1.67;1.67;;;;;26.35;54.62;99936.44;4875810;29;45386;-86
2023/07/15 08:29:28;;;;;;;;;0.25;0.25;;;;;26.23;53.91;99917.28;4876529;29;45407;-86
2023/07/15 08:31:54;;;;;;;;;1.67;1.67;;;;;26.10;53.74;99931.69;4859899;29;46947;-87
2023/07/15 08:34:19;;;;;;;;;1.00;1.00;;;;;26.19;54.05;99945.72;4860745;29;45364;-87
2023/07/15 08:36:44;;;;;;;;;3.00;3.00;;;;;26.09;54.09;99929.94;4876262;28;44789;-87
2023/07/15 08:39:10;;;;;;;;;1.67;1.67;;;;;26.16;54.18;99938.59;4876090;29;44725;-86
2023/07/15 08:41:40;;;;;;;;;1.33;1.33;;;;;26.07;54.23;99899.16;4876935;28;45522;-87
2023/07/15 08:44:06;;;;;;;;;1.25;1.25;;;;;26.20;54.73;99921.09;4874960;29;45488;-86
2023/07/15 08:46:31;;;;;;;;;2.67;2.67;;;;;26.19;54.46;99915.72;4875314;28;45906;-86
2023/07/15 08:49:02;;;;;;;;;1.00;1.00;;;;;26.22;54.53;99923.69;4876846;28;44786;-87
2023/07/15 08:51:34;;;;;;;;;2.33;2.33;;;;;26.32;54.43;99935.78;4859100;29;47320;-86
2023/07/15 08:54:05;;;;;;;;;2.00;1.67;;;;;26.20;54.47;99912.00;4877192;29;45405;-87
2023/07/15 08:56:34;;;;;;;;;1.00;1.00;;;;;26.23;54.63;99928.19;4844983;28;44790;-86
2023/07/15 08:58:59;;;;;;;;;3.00;3.00;;;;;26.25;54.63;99927.09;4858916;29;45678;-87
2023/07/15 09:01:27;;;;;;;;;2.67;2.67;;;;;26.27;54.49;99941.50;4874207;28;45369;-87
2023/07/15 09:03:53;;;;;;;;;0.67;0.67;;;;;26.26;54.34;99937.03;4872868;29;45357;-86
2023/07/15 09:06:18;;;;;;;;;2.33;2.33;;;;;26.26;54.78;99930.72;4858730;29;45321;-86
2023/07/15 09:12:09;;;;;;;;;3.33;2.67;;;;;26.47;54.38;99923.88;4876392;28;45453;-87
2023/07/15 09:14:43;;;;;;;;;3.00;1.00;;;;;26.60;54.09;99925.81;4875576;29;45374;-87
2023/07/15 09:17:15;;;;;;;;;4.00;2.00;;;;;26.72;53.75;99920.44;4875414;29;45300;-88
2023/07/15 09:19:41;;;;;;;;;3.25;3.00;;;;;26.75;53.68;99933.00;4859162;28;45415;-86
2023/07/15 09:22:08;;;;;;;;;2.00;2.00;;;;;26.74;52.93;99925.78;4856951;28;45349;-86
2023/07/15 09:24:37;;;;;;;;;2.00;2.00;;;;;26.79;53.30;99945.47;4873448;29;45520;-87
2023/07/15 09:27:03;;;;;;;;;3.50;2.00;;;;;26.85;52.84;99942.31;4872007;29;45429;-87
2023/07/15 09:29:29;;;;;;;;;3.67;2.33;;;;;26.94;52.34;99925.34;4841133;29;45743;-87
2023/07/15 09:31:55;;;;;;;;;2.33;2.33;;;;;27.07;52.23;99932.72;4873931;29;46572;-87
2023/07/15 09:34:22;;;;;;;;;3.00;3.00;;;;;27.26;51.60;99935.09;4855146;29;45431;-87
2023/07/15 09:36:48;;;;;;;;;3.67;3.00;;;;;27.25;51.62;99936.94;4872333;29;45495;-88
2023/07/15 09:39:15;;;;;;;;;2.33;2.33;;;;;27.24;51.21;99928.84;4872785;29;45814;-88
2023/07/15 09:41:46;;;;;;;;;2.00;2.00;;;;;27.28;51.35;99930.41;4872551;29;45295;-87
2023/07/15 09:44:12;;;;;;;;;2.00;2.00;;;;;27.26;51.54;99940.53;4856956;29;45402;-87
2023/07/15 09:46:39;;;;;;;;;4.00;4.00;;;;;27.34;51.26;99929.97;4859453;29;45435;-86
2023/07/15 09:49:11;;;;;;;;;1.67;1.67;;;;;27.56;51.00;99934.81;4873567;29;44974;-85
2023/07/15 09:51:39;;;;;;;;;1.00;1.00;;;;;27.64;51.00;99926.97;4874747;28;45494;-86
2023/07/15 09:54:06;;;;;;;;;3.00;2.33;;;;;27.93;50.42;99937.72;4875374;28;45499;-87
2023/07/15 09:56:37;;;;;;;;;4.33;2.33;;;;;28.19;49.25;99935.00;4875251;29;45428;-87
2023/07/15 09:59:17;;;;;;;;;1.67;1.67;;;;;28.35;48.46;99921.06;4859531;29;45375;-87
2023/07/15 10:02:10;;;;;;;;;2.67;2.33;;;;;28.82;48.05;99928.50;4857539;29;47393;-86
2023/07/15 10:04:43;;;;;;;;;3.00;3.00;;;;;29.15;46.82;99937.94;4859081;29;44743;-87
2023/07/15 10:07:09;;;;;;;;;0.33;0.33;;;;;29.28;46.57;99929.66;4858431;29;44801;-86
2023/07/15 10:09:36;;;;;;;;;2.33;2.33;;;;;29.45;45.99;99948.41;4843272;29;45604;-87
2023/07/15 10:12:04;;;;;;;;;1.33;1.33;;;;;29.54;46.00;99943.22;4842771;29;48175;-87
2023/07/15 10:14:31;;;;;;;;;1.67;1.33;;;;;29.58;45.59;99942.84;4857508;29;45650;-87
2023/07/15 10:17:15;;;;;;;;;2.33;2.33;;;;;29.92;43.64;99942.97;4858663;29;45387;-87
2023/07/15 10:19:45;;;;;;;;;3.33;2.00;;;;;29.97;44.08;99928.88;4873471;29;45543;-87
2023/07/15 10:22:18;;;;;;;;;3.00;3.00;;;;;30.09;44.07;99893.09;4857648;29;46862;-87
2023/07/15 10:24:53;;;;;;;;;1.67;1.00;;;;;30.15;43.01;99850.59;4872550;29;45370;-87
2023/07/15 10:27:18;;;;;;;;;0.00;0.00;;;;;29.99;43.74;99850.09;4874007;28;45435;-87
2023/07/15 10:29:44;;;;;;;;;2.00;2.00;;;;;29.99;43.29;99872.03;4858931;29;45525;-87
2023/07/15 10:32:14;;;;;;;;;1.33;1.33;;;;;30.08;43.04;99893.25;4874235;28;45176;-87
2023/07/15 10:34:57;;;;;;;;;1.33;1.33;;;;;30.00;42.82;99902.09;4873171;29;45799;-87
2023/07/15 10:37:23;;;;;;;;;4.00;2.33;;;;;29.73;43.21;99893.31;4873205;29;44750;-87
2023/07/15 10:39:48;;;;;;;;;1.67;1.67;;;;;29.59;43.36;99891.63;4858489;29;45402;-87
2023/07/15 10:42:17;;;;;;;;;1.00;1.00;;;;;29.71;43.21;99909.88;4875580;29;45595;-87
2023/07/15 10:44:46;;;;;;;;;1.00;1.00;;;;;29.50;42.88;99898.72;4873788;29;45427;-87
2023/07/15 10:47:15;;;;;;;;;1.67;1.67;;;;;29.45;43.49;99889.97;4860652;29;45309;-87
2023/07/15 10:49:42;;;;;;;;;0.00;0.00;;;;;29.42;43.62;99885.63;4874150;29;45333;-87
2023/07/15 10:52:09;;;;;;;;;1.33;1.33;;;;;29.49;43.17;99902.44;4873568;29;46680;-87
2023/07/15 10:54:39;;;;;;;;;3.00;3.00;;;;;29.61;43.71;99893.28;4872974;29;45416;-87
2023/07/15 10:57:10;;;;;;;;;1.67;1.67;;;;;29.58;42.46;99889.91;4859476;29;45391;-87
2023/07/15 10:59:37;;;;;;;;;1.67;1.67;;;;;29.26;42.74;99885.94;4859173;29;45438;-87
2023/07/15 11:02:03;;;;;;;;;2.00;2.00;;;;;29.30;42.61;99903.88;4874278;29;46829;-87
2023/07/15 11:04:30;;;;;;;;;2.67;2.67;;;;;29.40;42.74;99897.72;4874479;29;45569;-87
2023/07/15 11:07:06;;;;;;;;;1.00;1.00;;;;;29.44;42.51;99896.47;4876001;29;45623;-87
2023/07/15 11:09:37;;;;;;;;;2.00;2.00;;;;;29.52;42.92;99907.69;4874999;29;45334;-87
2023/07/15 11:12:08;;;;;;;;;2.00;2.00;;;;;29.68;42.19;99902.75;4873128;29;47341;-87
2023/07/15 11:14:33;;;;;;;;;0.00;0.00;;;;;29.73;42.28;99896.06;4856718;29;45553;-87
2023/07/15 11:17:00;;;;;;;;;1.67;0.67;;;;;29.81;42.22;99888.09;4872115;29;45249;-87
2023/07/15 11:19:29;;;;;;;;;1.33;1.33;;;;;29.68;41.61;99878.09;4856058;29;45438;-87
2023/07/15 11:22:10;;;;;;;;;1.00;1.00;;;;;29.59;42.36;99869.72;4870564;29;47461;-87
2023/07/15 11:24:39;;;;;;;;;3.00;3.00;;;;;29.39;42.68;99874.03;4873768;29;45385;-87
2023/07/15 11:27:04;;;;;;;;;2.00;2.00;;;;;29.28;43.05;99873.00;4858029;29;45469;-87
2023/07/15 11:29:31;;;;;;;;;3.00;2.00;;;;;29.31;44.02;99867.31;4857191;29;45369;-87
2023/07/15 11:31:57;;;;;;;;;1.67;1.33;;;;;29.29;44.17;99887.59;4873884;29;45448;-87
2023/07/15 11:34:25;;;;;;;;;3.00;3.00;;;;;29.52;44.18;99913.19;4872931;29;45475;-85
2023/07/15 11:36:55;;;;;;;;;2.33;2.00;;;;;29.87;44.73;99917.75;4858050;29;45396;-86
2023/07/15 11:39:24;;;;;;;;;3.00;2.00;;;;;29.79;43.71;99893.69;4874039;29;45284;-86
2023/07/15 11:41:50;;;;;;;;;4.00;2.00;;;;;29.93;44.23;99911.78;4858584;29;46850;-86
2023/07/15 11:44:19;;;;;;;;;1.67;1.67;;;;;30.22;43.90;99894.88;4857965;29;45343;-87